Terminal Aerodrome Forecast
Issued by NWS

Home | Current Version | Previous Version | Text Only | Print | Product List | Glossary On
Versions: 1 2 3 4 5 6 7 8 9 10 11 12 13 14 15 16 17
153
FTUS43 KGRB 010540 AAA
TAFCWA
TAF AMD
KCWA 010540Z 0106/0206 12006KT P6SM -SHRA SCT006 OVC025
      TEMPO 0106/0110 3SM -SHRA BKN006 OVC015
     FM011000 16006KT P6SM VCSH OVC030
     FM011200 17006KT P6SM VCSH OVC045
     FM011400 20006KT P6SM BKN110
     FM012000 24012G21KT P6SM SCT110
     FM020100 27009KT P6SM SCT120
      AMD LTD TO CLD VIS AND WIND TIL 011100=

USA.gov is the U.S. government's official web portal to all federal, state and local government web resources and services.